sensor_id;sensor_type;location;lat;lon;timestamp;pressure;altitude;pressure_sealevel;temperature;humidity
36828;BME280;22766;48.042;11.192;2023-04-22T00:02:11;94478.06;;;7.39;100.00
36828;BME280;22766;48.042;11.192;2023-04-22T00:04:43;94477.25;;;7.38;100.00
36828;BME280;22766;48.042;11.192;2023-04-22T00:07:13;94476.88;;;7.33;100.00
36828;BME280;22766;48.042;11.192;2023-04-22T00:09:41;94478.41;;;7.26;100.00
36828;BME280;22766;48.042;11.192;2023-04-22T00:12:08;94471.13;;;7.22;100.00
36828;BME280;22766;48.042;11.192;2023-04-22T00:14:37;94474.00;;;7.19;100.00
36828;BME280;22766;48.042;11.192;2023-04-22T00:17:04;94475.09;;;7.16;100.00
36828;BME280;22766;48.042;11.192;2023-04-22T00:19:33;94479.66;;;7.22;100.00
36828;BME280;22766;48.042;11.192;2023-04-22T00:22:00;94470.56;;;7.28;100.00
36828;BME280;22766;48.042;11.192;2023-04-22T00:24:28;94470.28;;;7.31;100.00
36828;BME280;22766;48.042;11.192;2023-04-22T00:26:55;94470.00;;;7.34;100.00
36828;BME280;22766;48.042;11.192;2023-04-22T00:29:22;94467.56;;;7.32;100.00
36828;BME280;22766;48.042;11.192;2023-04-22T00:31:49;94467.41;;;7.34;100.00
36828;BME280;22766;48.042;11.192;2023-04-22T00:34:16;94460.97;;;7.30;100.00
36828;BME280;22766;48.042;11.192;2023-04-22T00:36:46;94464.63;;;7.27;100.00
36828;BME280;22766;48.042;11.192;2023-04-22T00:39:12;94465.06;;;7.23;100.00
36828;BME280;22766;48.042;11.192;2023-04-22T00:41:40;94467.28;;;7.18;100.00
36828;BME280;22766;48.042;11.192;2023-04-22T00:44:10;94471.75;;;7.16;100.00
36828;BME280;22766;48.042;11.192;2023-04-22T00:46:38;94461.84;;;7.21;100.00
36828;BME280;22766;48.042;11.192;2023-04-22T00:49:06;94469.13;;;7.25;100.00
36828;BME280;22766;48.042;11.192;2023-04-22T00:51:34;94470.41;;;7.29;100.00
36828;BME280;22766;48.042;11.192;2023-04-22T00:54:01;94469.16;;;7.33;100.00
36828;BME280;22766;48.042;11.192;2023-04-22T00:56:30;94466.75;;;7.32;100.00
36828;BME280;22766;48.042;11.192;2023-04-22T00:58:57;94469.63;;;7.29;100.00
36828;BME280;22766;48.042;11.192;2023-04-22T01:01:25;94473.66;;;7.31;100.00
36828;BME280;22766;48.042;11.192;2023-04-22T01:03:52;94465.00;;;7.32;100.00
36828;BME280;22766;48.042;11.192;2023-04-22T01:06:20;94471.06;;;7.31;100.00
36828;BME280;22766;48.042;11.192;2023-04-22T01:08:47;94472.19;;;7.29;100.00
36828;BME280;22766;48.042;11.192;2023-04-22T01:11:14;94467.22;;;7.27;100.00
36828;BME280;22766;48.042;11.192;2023-04-22T01:13:41;94467.22;;;7.27;100.00
36828;BME280;22766;48.042;11.192;2023-04-22T01:16:08;94464.25;;;7.22;100.00
36828;BME280;22766;48.042;11.192;2023-04-22T01:18:36;94463.06;;;7.17;100.00
36828;BME280;22766;48.042;11.192;2023-04-22T01:21:03;94457.66;;;7.20;100.00
36828;BME280;22766;48.042;11.192;2023-04-22T01:23:29;94460.22;;;7.20;100.00
36828;BME280;22766;48.042;11.192;2023-04-22T01:25:56;94464.75;;;7.08;100.00
36828;BME280;22766;48.042;11.192;2023-04-22T01:28:24;94461.28;;;7.00;100.00
36828;BME280;22766;48.042;11.192;2023-04-22T01:30:52;94464.41;;;6.94;100.00
36828;BME280;22766;48.042;11.192;2023-04-22T01:33:19;94467.78;;;6.94;100.00
36828;BME280;22766;48.042;11.192;2023-04-22T01:35:46;94469.47;;;6.86;100.00
36828;BME280;22766;48.042;11.192;2023-04-22T01:38:13;94473.84;;;6.76;100.00
36828;BME280;22766;48.042;11.192;2023-04-22T01:40:40;94466.59;;;6.61;100.00
36828;BME280;22766;48.042;11.192;2023-04-22T01:43:07;94460.66;;;6.61;100.00
36828;BME280;22766;48.042;11.192;2023-04-22T01:45:33;94469.97;;;6.62;100.00
36828;BME280;22766;48.042;11.192;2023-04-22T01:48:00;94461.31;;;6.63;100.00
36828;BME280;22766;48.042;11.192;2023-04-22T01:50:27;94466.44;;;6.63;100.00
36828;BME280;22766;48.042;11.192;2023-04-22T01:52:54;94469.16;;;6.61;100.00
36828;BME280;22766;48.042;11.192;2023-04-22T01:55:21;94469.50;;;6.49;100.00
36828;BME280;22766;48.042;11.192;2023-04-22T01:57:48;94477.44;;;6.46;100.00
36828;BME280;22766;48.042;11.192;2023-04-22T02:00:16;94479.22;;;6.45;100.00
36828;BME280;22766;48.042;11.192;2023-04-22T02:02:45;94473.53;;;6.51;100.00
36828;BME280;22766;48.042;11.192;2023-04-22T02:05:13;94475.09;;;6.62;100.00
36828;BME280;22766;48.042;11.192;2023-04-22T02:07:40;94478.06;;;6.57;100.00
36828;BME280;22766;48.042;11.192;2023-04-22T02:10:07;94466.63;;;6.52;100.00
36828;BME280;22766;48.042;11.192;2023-04-22T02:12:34;94478.00;;;6.49;100.00
36828;BME280;22766;48.042;11.192;2023-04-22T02:15:01;94474.09;;;6.45;100.00
36828;BME280;22766;48.042;11.192;2023-04-22T02:17:28;94476.94;;;6.33;100.00
36828;BME280;22766;48.042;11.192;2023-04-22T02:19:55;94469.56;;;6.20;100.00
36828;BME280;22766;48.042;11.192;2023-04-22T02:22:22;94471.47;;;6.18;100.00
36828;BME280;22766;48.042;11.192;2023-04-22T02:24:49;94476.88;;;6.15;100.00
36828;BME280;22766;48.042;11.192;2023-04-22T02:27:16;94476.31;;;6.12;100.00
36828;BME280;22766;48.042;11.192;2023-04-22T02:29:45;94471.34;;;6.10;100.00
36828;BME280;22766;48.042;11.192;2023-04-22T02:32:14;94469.88;;;6.08;100.00
36828;BME280;22766;48.042;11.192;2023-04-22T02:34:42;94467.88;;;6.02;100.00
36828;BME280;22766;48.042;11.192;2023-04-22T02:37:09;94470.28;;;5.94;100.00
36828;BME280;22766;48.042;11.192;2023-04-22T02:39:36;94475.44;;;5.84;100.00
36828;BME280;22766;48.042;11.192;2023-04-22T02:42:03;94478.94;;;5.74;100.00
36828;BME280;22766;48.042;11.192;2023-04-22T02:44:29;94482.81;;;5.68;100.00
36828;BME280;22766;48.042;11.192;2023-04-22T02:46:56;94477.97;;;5.65;100.00
36828;BME280;22766;48.042;11.192;2023-04-22T02:49:23;94479.84;;;5.63;100.00
36828;BME280;22766;48.042;11.192;2023-04-22T02:51:51;94477.28;;;5.63;100.00
36828;BME280;22766;48.042;11.192;2023-04-22T02:54:18;94477.56;;;5.60;100.00
36828;BME280;22766;48.042;11.192;2023-04-22T02:56:45;94482.16;;;5.56;100.00
36828;BME280;22766;48.042;11.192;2023-04-22T02:59:11;94480.13;;;5.50;100.00
36828;BME280;22766;48.042;11.192;2023-04-22T03:01:38;94477.16;;;5.45;100.00
36828;BME280;22766;48.042;11.192;2023-04-22T03:04:09;94475.94;;;5.40;100.00
36828;BME280;22766;48.042;11.192;2023-04-22T03:06:38;94475.81;;;5.32;100.00
36828;BME280;22766;48.042;11.192;2023-04-22T03:09:04;94470.41;;;5.25;100.00
36828;BME280;22766;48.042;11.192;2023-04-22T03:11:31;94472.56;;;5.20;100.00
36828;BME280;22766;48.042;11.192;2023-04-22T03:13:58;94472.94;;;5.16;100.00
36828;BME280;22766;48.042;11.192;2023-04-22T03:16:26;94466.09;;;5.16;100.00
36828;BME280;22766;48.042;11.192;2023-04-22T03:18:54;94464.47;;;5.15;100.00
36828;BME280;22766;48.042;11.192;2023-04-22T03:21:21;94466.47;;;5.12;100.00
36828;BME280;22766;48.042;11.192;2023-04-22T03:23:48;94465.41;;;5.14;100.00
36828;BME280;22766;48.042;11.192;2023-04-22T03:26:15;94458.13;;;5.10;100.00
36828;BME280;22766;48.042;11.192;2023-04-22T03:28:42;94465.25;;;5.06;100.00
36828;BME280;22766;48.042;11.192;2023-04-22T03:31:09;94455.97;;;5.05;100.00
36828;BME280;22766;48.042;11.192;2023-04-22T03:33:36;94464.84;;;5.01;100.00
36828;BME280;22766;48.042;11.192;2023-04-22T03:36:10;94462.97;;;4.94;100.00
36828;BME280;22766;48.042;11.192;2023-04-22T03:38:37;94464.28;;;4.88;100.00
36828;BME280;22766;48.042;11.192;2023-04-22T03:41:03;94470.47;;;4.86;100.00
36828;BME280;22766;48.042;11.192;2023-04-22T03:43:38;94464.91;;;4.81;100.00
36828;BME280;22766;48.042;11.192;2023-04-22T03:46:07;94467.63;;;4.79;100.00
36828;BME280;22766;48.042;11.192;2023-04-22T03:48:38;94472.84;;;4.68;100.00
36828;BME280;22766;48.042;11.192;2023-04-22T03:51:10;94467.31;;;4.63;100.00
36828;BME280;22766;48.042;11.192;2023-04-22T03:53:39;94474.44;;;4.59;100.00
36828;BME280;22766;48.042;11.192;2023-04-22T03:56:07;94475.91;;;4.62;100.00
36828;BME280;22766;48.042;11.192;2023-04-22T03:58:38;94471.16;;;4.48;100.00
36828;BME280;22766;48.042;11.192;2023-04-22T04:01:06;94477.59;;;4.42;100.00
36828;BME280;22766;48.042;11.192;2023-04-22T04:03:34;94473.81;;;4.37;100.00
36828;BME280;22766;48.042;11.192;2023-04-22T04:06:02;94467.47;;;4.41;100.00
36828;BME280;22766;48.042;11.192;2023-04-22T04:08:29;94467.38;;;4.42;100.00
36828;BME280;22766;48.042;11.192;2023-04-22T04:10:57;94466.28;;;4.45;100.00
36828;BME280;22766;48.042;11.192;2023-04-22T04:13:25;94468.69;;;4.46;100.00
36828;BME280;22766;48.042;11.192;2023-04-22T04:16:12;94466.16;;;4.46;100.00
36828;BME280;22766;48.042;11.192;2023-04-22T04:18:41;94473.56;;;4.49;100.00
36828;BME280;22766;48.042;11.192;2023-04-22T04:21:08;94470.06;;;4.50;100.00
36828;BME280;22766;48.042;11.192;2023-04-22T04:23:40;94469.66;;;4.45;100.00
36828;BME280;22766;48.042;11.192;2023-04-22T04:26:07;94473.41;;;4.41;100.00
36828;BME280;22766;48.042;11.192;2023-04-22T04:28:37;94473.53;;;4.40;100.00
36828;BME280;22766;48.042;11.192;2023-04-22T04:31:05;94484.69;;;4.39;100.00
36828;BME280;22766;48.042;11.192;2023-04-22T04:33:32;94474.22;;;4.42;100.00
36828;BME280;22766;48.042;11.192;2023-04-22T04:35:59;94475.59;;;4.46;100.00
36828;BME280;22766;48.042;11.192;2023-04-22T04:38:29;94478.00;;;4.47;100.00
36828;BME280;22766;48.042;11.192;2023-04-22T04:40:56;94483.81;;;4.49;100.00
36828;BME280;22766;48.042;11.192;2023-04-22T04:43:24;94482.59;;;4.53;100.00
36828;BME280;22766;48.042;11.192;2023-04-22T04:46:09;94480.88;;;4.54;100.00
36828;BME280;22766;48.042;11.192;2023-04-22T04:48:36;94479.41;;;4.61;100.00
36828;BME280;22766;48.042;11.192;2023-04-22T04:51:07;94479.59;;;4.69;100.00
36828;BME280;22766;48.042;11.192;2023-04-22T04:53:42;94473.91;;;4.75;100.00
36828;BME280;22766;48.042;11.192;2023-04-22T04:56:10;94476.66;;;4.83;100.00
36828;BME280;22766;48.042;11.192;2023-04-22T04:58:36;94473.06;;;4.95;100.00
36828;BME280;22766;48.042;11.192;2023-04-22T05:01:15;94474.69;;;5.15;100.00
36828;BME280;22766;48.042;11.192;2023-04-22T05:03:43;94478.63;;;5.29;100.00
36828;BME280;22766;48.042;11.192;2023-04-22T05:06:13;94479.16;;;5.42;100.00
36828;BME280;22766;48.042;11.192;2023-04-22T05:08:44;94475.69;;;5.62;100.00
36828;BME280;22766;48.042;11.192;2023-04-22T05:11:12;94475.53;;;5.73;100.00
36828;BME280;22766;48.042;11.192;2023-04-22T05:13:40;94471.91;;;5.85;100.00
36828;BME280;22766;48.042;11.192;2023-04-22T05:16:10;94474.06;;;5.99;100.00
36828;BME280;22766;48.042;11.192;2023-04-22T05:18:37;94473.50;;;6.15;100.00
36828;BME280;22766;48.042;11.192;2023-04-22T05:21:08;94478.31;;;6.27;100.00
36828;BME280;22766;48.042;11.192;2023-04-22T05:23:35;94481.28;;;6.32;100.00
36828;BME280;22766;48.042;11.192;2023-04-22T05:26:04;94490.66;;;6.51;100.00
36828;BME280;22766;48.042;11.192;2023-04-22T05:28:31;94494.88;;;6.79;100.00
36828;BME280;22766;48.042;11.192;2023-04-22T05:30:58;94496.91;;;7.30;100.00
36828;BME280;22766;48.042;11.192;2023-04-22T05:33:27;94498.53;;;7.48;100.00
36828;BME280;22766;48.042;11.192;2023-04-22T05:35:54;94504.19;;;7.70;100.00
36828;BME280;22766;48.042;11.192;2023-04-22T05:38:22;94509.06;;;7.73;100.00
36828;BME280;22766;48.042;11.192;2023-04-22T05:40:48;94509.41;;;7.78;100.00
36828;BME280;22766;48.042;11.192;2023-04-22T05:43:17;94508.69;;;8.03;100.00
36828;BME280;22766;48.042;11.192;2023-04-22T05:46:03;94514.19;;;8.25;100.00
36828;BME280;22766;48.042;11.192;2023-04-22T05:48:32;94519.28;;;8.43;100.00
36828;BME280;22766;48.042;11.192;2023-04-22T05:51:02;94523.09;;;8.57;100.00
36828;BME280;22766;48.042;11.192;2023-04-22T05:53:30;94522.28;;;8.56;100.00
36828;BME280;22766;48.042;11.192;2023-04-22T05:55:58;94519.44;;;8.67;100.00
36828;BME280;22766;48.042;11.192;2023-04-22T05:58:25;94526.59;;;8.81;100.00
36828;BME280;22766;48.042;11.192;2023-04-22T06:00:53;94522.66;;;9.03;100.00
36828;BME280;22766;48.042;11.192;2023-04-22T06:03:49;94525.22;;;9.36;100.00
36828;BME280;22766;48.042;11.192;2023-04-22T06:06:17;94518.34;;;9.53;100.00
36828;BME280;22766;48.042;11.192;2023-04-22T06:08:45;94522.22;;;9.65;100.00
36828;BME280;22766;48.042;11.192;2023-04-22T06:11:12;94519.38;;;9.76;100.00
36828;BME280;22766;48.042;11.192;2023-04-22T06:13:38;94521.75;;;9.62;100.00
36828;BME280;22766;48.042;11.192;2023-04-22T06:16:06;94520.81;;;9.87;100.00
36828;BME280;22766;48.042;11.192;2023-04-22T06:18:33;94520.69;;;9.96;100.00
36828;BME280;22766;48.042;11.192;2023-04-22T06:21:05;94519.09;;;10.11;100.00
36828;BME280;22766;48.042;11.192;2023-04-22T06:23:31;94529.44;;;10.19;100.00
36828;BME280;22766;48.042;11.192;2023-04-22T06:25:58;94527.47;;;10.38;100.00
36828;BME280;22766;48.042;11.192;2023-04-22T06:28:27;94517.00;;;10.47;100.00
36828;BME280;22766;48.042;11.192;2023-04-22T06:30:57;94522.81;;;10.33;100.00
36828;BME280;22766;48.042;11.192;2023-04-22T06:33:24;94524.13;;;10.29;100.00
36828;BME280;22766;48.042;11.192;2023-04-22T06:35:51;94526.69;;;10.29;100.00
36828;BME280;22766;48.042;11.192;2023-04-22T06:38:17;94526.69;;;10.37;100.00
36828;BME280;22766;48.042;11.192;2023-04-22T06:41:07;94528.28;;;10.54;100.00
36828;BME280;22766;48.042;11.192;2023-04-22T06:43:37;94521.28;;;10.87;100.00
36828;BME280;22766;48.042;11.192;2023-04-22T06:46:04;94524.75;;;11.10;100.00
36828;BME280;22766;48.042;11.192;2023-04-22T06:48:49;94520.91;;;11.06;100.00
36828;BME280;22766;48.042;11.192;2023-04-22T06:51:35;94522.06;;;11.03;100.00
36828;BME280;22766;48.042;11.192;2023-04-22T06:54:02;94529.13;;;11.09;100.00
36828;BME280;22766;48.042;11.192;2023-04-22T06:56:29;94525.66;;;11.25;100.00
36828;BME280;22766;48.042;11.192;2023-04-22T06:58:56;94523.56;;;11.59;100.00
36828;BME280;22766;48.042;11.192;2023-04-22T07:01:23;94522.09;;;11.65;100.00
36828;BME280;22766;48.042;11.192;2023-04-22T07:03:49;94517.25;;;11.70;100.00
36828;BME280;22766;48.042;11.192;2023-04-22T07:06:17;94517.47;;;11.91;100.00
36828;BME280;22766;48.042;11.192;2023-04-22T07:08:44;94518.59;;;12.34;100.00
36828;BME280;22766;48.042;11.192;2023-04-22T07:11:11;94516.16;;;12.69;100.00
36828;BME280;22766;48.042;11.192;2023-04-22T07:14:02;94528.47;;;13.04;96.72
36828;BME280;22766;48.042;11.192;2023-04-22T07:16:29;94521.28;;;12.77;98.49
36828;BME280;22766;48.042;11.192;2023-04-22T07:18:56;94524.34;;;12.95;100.00
36828;BME280;22766;48.042;11.192;2023-04-22T07:21:24;94523.34;;;12.96;99.52
36828;BME280;22766;48.042;11.192;2023-04-22T07:23:51;94520.88;;;13.32;98.40
36828;BME280;22766;48.042;11.192;2023-04-22T07:26:18;94519.69;;;13.64;97.78
36828;BME280;22766;48.042;11.192;2023-04-22T07:28:44;94523.19;;;13.92;88.12
36828;BME280;22766;48.042;11.192;2023-04-22T07:31:11;94514.53;;;14.06;87.96
36828;BME280;22766;48.042;11.192;2023-04-22T07:33:38;94523.88;;;14.22;80.48
36828;BME280;22766;48.042;11.192;2023-04-22T07:36:05;94523.69;;;14.44;75.19
36828;BME280;22766;48.042;11.192;2023-04-22T07:38:32;94516.38;;;14.75;70.86
36828;BME280;22766;48.042;11.192;2023-04-22T07:40:59;94513.47;;;14.91;66.09
36828;BME280;22766;48.042;11.192;2023-04-22T07:43:25;94507.47;;;14.91;65.91
36828;BME280;22766;48.042;11.192;2023-04-22T07:45:52;94511.81;;;15.12;64.43
36828;BME280;22766;48.042;11.192;2023-04-22T07:48:19;94516.47;;;15.29;66.82
36828;BME280;22766;48.042;11.192;2023-04-22T07:50:45;94519.63;;;15.52;62.17
36828;BME280;22766;48.042;11.192;2023-04-22T07:53:12;94520.91;;;15.63;63.31
36828;BME280;22766;48.042;11.192;2023-04-22T07:55:41;94527.06;;;16.16;72.13
36828;BME280;22766;48.042;11.192;2023-04-22T07:58:08;94533.22;;;16.02;58.37
36828;BME280;22766;48.042;11.192;2023-04-22T08:00:34;94524.81;;;15.93;58.29
36828;BME280;22766;48.042;11.192;2023-04-22T08:03:02;94523.25;;;16.12;55.92
36828;BME280;22766;48.042;11.192;2023-04-22T08:05:29;94529.25;;;16.12;51.71
36828;BME280;22766;48.042;11.192;2023-04-22T08:07:56;94528.25;;;16.13;52.53
36828;BME280;22766;48.042;11.192;2023-04-22T08:10:23;94525.69;;;16.39;54.00
36828;BME280;22766;48.042;11.192;2023-04-22T08:12:49;94530.28;;;16.18;49.44
36828;BME280;22766;48.042;11.192;2023-04-22T08:15:16;94526.09;;;16.36;50.07
36828;BME280;22766;48.042;11.192;2023-04-22T08:17:43;94530.97;;;16.78;50.31
36828;BME280;22766;48.042;11.192;2023-04-22T08:20:10;94526.94;;;16.63;51.55
36828;BME280;22766;48.042;11.192;2023-04-22T08:22:37;94526.53;;;16.53;48.95
36828;BME280;22766;48.042;11.192;2023-04-22T08:25:04;94522.31;;;16.58;49.01
36828;BME280;22766;48.042;11.192;2023-04-22T08:27:32;94527.50;;;17.24;49.32
36828;BME280;22766;48.042;11.192;2023-04-22T08:29:58;94524.09;;;17.30;47.67
36828;BME280;22766;48.042;11.192;2023-04-22T08:32:25;94519.44;;;17.38;48.56
36828;BME280;22766;48.042;11.192;2023-04-22T08:34:52;94519.97;;;18.11;47.34
36828;BME280;22766;48.042;11.192;2023-04-22T08:37:24;94518.66;;;18.33;43.97
36828;BME280;22766;48.042;11.192;2023-04-22T08:39:51;94515.06;;;18.58;45.40
36828;BME280;22766;48.042;11.192;2023-04-22T08:42:19;94524.44;;;18.97;44.11
36828;BME280;22766;48.042;11.192;2023-04-22T08:44:47;94517.22;;;18.68;40.50
36828;BME280;22766;48.042;11.192;2023-04-22T08:47:14;94517.91;;;18.57;42.82
36828;BME280;22766;48.042;11.192;2023-04-22T08:49:42;94513.78;;;18.67;40.10
36828;BME280;22766;48.042;11.192;2023-04-22T08:52:10;94514.75;;;18.98;39.97
36828;BME280;22766;48.042;11.192;2023-04-22T08:54:38;94514.31;;;19.01;40.10
36828;BME280;22766;48.042;11.192;2023-04-22T08:57:05;94517.25;;;19.35;40.18
36828;BME280;22766;48.042;11.192;2023-04-22T08:59:34;94509.72;;;19.93;36.74
36828;BME280;22766;48.042;11.192;2023-04-22T09:02:02;94512.34;;;19.93;37.36
36828;BME280;22766;48.042;11.192;2023-04-22T09:04:30;94502.75;;;19.69;37.51
36828;BME280;22766;48.042;11.192;2023-04-22T09:06:58;94510.13;;;19.42;36.29
36828;BME280;22766;48.042;11.192;2023-04-22T09:09:28;94504.75;;;18.63;37.42
36828;BME280;22766;48.042;11.192;2023-04-22T09:11:56;94493.69;;;18.68;38.99
36828;BME280;22766;48.042;11.192;2023-04-22T09:14:24;94497.13;;;18.87;39.01
36828;BME280;22766;48.042;11.192;2023-04-22T09:16:52;94495.56;;;19.65;41.76
36828;BME280;22766;48.042;11.192;2023-04-22T09:19:22;94496.31;;;20.31;39.77
36828;BME280;22766;48.042;11.192;2023-04-22T09:21:49;94491.28;;;20.82;41.44
36828;BME280;22766;48.042;11.192;2023-04-22T09:24:19;94489.78;;;20.63;36.31
36828;BME280;22766;48.042;11.192;2023-04-22T09:26:46;94494.38;;;20.68;37.38
36828;BME280;22766;48.042;11.192;2023-04-22T09:29:14;94488.34;;;20.79;38.88
36828;BME280;22766;48.042;11.192;2023-04-22T09:31:47;94492.38;;;21.16;38.66
36828;BME280;22766;48.042;11.192;2023-04-22T09:34:13;94486.19;;;20.99;35.97
36828;BME280;22766;48.042;11.192;2023-04-22T09:36:42;94481.16;;;21.44;39.42
36828;BME280;22766;48.042;11.192;2023-04-22T09:39:08;94491.09;;;21.53;40.40
36828;BME280;22766;48.042;11.192;2023-04-22T09:41:37;94486.78;;;21.87;38.28
36828;BME280;22766;48.042;11.192;2023-04-22T09:44:14;94487.69;;;21.92;37.38
36828;BME280;22766;48.042;11.192;2023-04-22T09:46:42;94482.91;;;21.89;40.77
36828;BME280;22766;48.042;11.192;2023-04-22T09:49:09;94470.41;;;21.96;40.27
36828;BME280;22766;48.042;11.192;2023-04-22T09:51:39;94468.00;;;22.06;38.03
36828;BME280;22766;48.042;11.192;2023-04-22T09:54:09;94470.09;;;22.21;40.76
36828;BME280;22766;48.042;11.192;2023-04-22T09:56:52;94467.88;;;22.29;41.07
36828;BME280;22766;48.042;11.192;2023-04-22T09:59:20;94460.56;;;22.32;39.37
36828;BME280;22766;48.042;11.192;2023-04-22T10:01:50;94457.78;;;21.82;39.08
36828;BME280;22766;48.042;11.192;2023-04-22T10:04:18;94455.81;;;22.17;38.74
36828;BME280;22766;48.042;11.192;2023-04-22T10:06:47;94447.53;;;22.08;41.33
36828;BME280;22766;48.042;11.192;2023-04-22T10:09:19;94445.59;;;22.04;39.64
36828;BME280;22766;48.042;11.192;2023-04-22T10:11:47;94446.53;;;22.26;35.11
36828;BME280;22766;48.042;11.192;2023-04-22T10:14:15;94455.72;;;22.57;39.96
36828;BME280;22766;48.042;11.192;2023-04-22T10:16:45;94451.09;;;23.13;39.55
36828;BME280;22766;48.042;11.192;2023-04-22T10:19:22;94449.53;;;23.17;37.42
36828;BME280;22766;48.042;11.192;2023-04-22T10:21:53;94451.28;;;22.90;37.79
36828;BME280;22766;48.042;11.192;2023-04-22T10:24:23;94446.81;;;22.74;36.98
36828;BME280;22766;48.042;11.192;2023-04-22T10:26:55;94447.81;;;23.06;37.23
36828;BME280;22766;48.042;11.192;2023-04-22T10:29:26;94448.97;;;22.94;37.06
36828;BME280;22766;48.042;11.192;2023-04-22T10:34:20;94439.56;;;22.65;36.85
36828;BME280;22766;48.042;11.192;2023-04-22T10:37:06;94431.50;;;22.10;32.39
36828;BME280;22766;48.042;11.192;2023-04-22T10:39:35;94435.56;;;22.79;30.57
36828;BME280;22766;48.042;11.192;2023-04-22T10:44:31;94434.53;;;22.63;29.75
36828;BME280;22766;48.042;11.192;2023-04-22T10:47:11;94434.75;;;22.95;31.00
36828;BME280;22766;48.042;11.192;2023-04-22T10:49:37;94428.38;;;22.74;29.13
36828;BME280;22766;48.042;11.192;2023-04-22T10:52:05;94434.41;;;22.25;29.57
36828;BME280;22766;48.042;11.192;2023-04-22T10:59:30;94431.41;;;22.99;27.71
36828;BME280;22766;48.042;11.192;2023-04-22T11:02:10;94429.13;;;22.70;27.52
36828;BME280;22766;48.042;11.192;2023-04-22T11:04:37;94425.44;;;22.71;28.63
36828;BME280;22766;48.042;11.192;2023-04-22T11:09:49;94426.28;;;24.44;31.71
36828;BME280;22766;48.042;11.192;2023-04-22T11:15:17;94433.94;;;24.46;28.08
36828;BME280;22766;48.042;11.192;2023-04-22T11:17:49;94429.47;;;24.78;27.38
36828;BME280;22766;48.042;11.192;2023-04-22T11:20:17;94435.00;;;23.96;26.45
36828;BME280;22766;48.042;11.192;2023-04-22T11:22:52;94430.06;;;24.58;29.14
36828;BME280;22766;48.042;11.192;2023-04-22T11:25:19;94423.19;;;24.84;31.44
36828;BME280;22766;48.042;11.192;2023-04-22T11:27:46;94435.19;;;25.02;28.06
36828;BME280;22766;48.042;11.192;2023-04-22T11:30:15;94432.94;;;25.20;25.94
36828;BME280;22766;48.042;11.192;2023-04-22T11:32:45;94424.31;;;25.40;28.94
36828;BME280;22766;48.042;11.192;2023-04-22T11:35:14;94427.59;;;25.15;27.23
36828;BME280;22766;48.042;11.192;2023-04-22T11:40:12;94421.69;;;25.40;27.09
36828;BME280;22766;48.042;11.192;2023-04-22T11:42:57;94430.69;;;25.44;28.20
36828;BME280;22766;48.042;11.192;2023-04-22T11:45:25;94427.63;;;25.67;28.14
36828;BME280;22766;48.042;11.192;2023-04-22T11:47:52;94420.72;;;26.93;25.10
36828;BME280;22766;48.042;11.192;2023-04-22T11:50:22;94422.69;;;27.66;24.27
36828;BME280;22766;48.042;11.192;2023-04-22T11:52:54;94418.97;;;27.73;23.80
36828;BME280;22766;48.042;11.192;2023-04-22T11:55:27;94420.47;;;27.94;25.64
36828;BME280;22766;48.042;11.192;2023-04-22T11:58:05;94416.03;;;28.28;25.36
36828;BME280;22766;48.042;11.192;2023-04-22T12:00:39;94422.31;;;28.81;25.28
36828;BME280;22766;48.042;11.192;2023-04-22T12:05:46;94420.38;;;28.57;25.36
36828;BME280;22766;48.042;11.192;2023-04-22T12:08:17;94418.69;;;28.28;23.41
36828;BME280;22766;48.042;11.192;2023-04-22T12:10:45;94420.88;;;27.62;26.12
36828;BME280;22766;48.042;11.192;2023-04-22T12:15:45;94414.56;;;26.12;25.89
36828;BME280;22766;48.042;11.192;2023-04-22T12:18:12;94412.88;;;25.81;24.43
36828;BME280;22766;48.042;11.192;2023-04-22T12:20:40;94401.59;;;24.92;26.17
36828;BME280;22766;48.042;11.192;2023-04-22T12:23:14;94409.91;;;25.67;25.54
36828;BME280;22766;48.042;11.192;2023-04-22T12:25:42;94410.13;;;26.38;25.37
36828;BME280;22766;48.042;11.192;2023-04-22T12:28:09;94412.22;;;26.51;24.44
36828;BME280;22766;48.042;11.192;2023-04-22T12:30:36;94408.00;;;26.45;25.10
36828;BME280;22766;48.042;11.192;2023-04-22T12:33:03;94401.94;;;26.79;24.19
36828;BME280;22766;48.042;11.192;2023-04-22T12:35:30;94409.31;;;27.03;22.22
36828;BME280;22766;48.042;11.192;2023-04-22T12:37:57;94401.13;;;26.49;23.68
36828;BME280;22766;48.042;11.192;2023-04-22T12:40:23;94402.44;;;26.66;22.65
36828;BME280;22766;48.042;11.192;2023-04-22T12:42:50;94400.56;;;26.52;23.33
36828;BME280;22766;48.042;11.192;2023-04-22T12:45:17;94395.25;;;26.22;24.29
36828;BME280;22766;48.042;11.192;2023-04-22T12:47:43;94396.88;;;26.98;26.40
36828;BME280;22766;48.042;11.192;2023-04-22T12:50:12;94393.97;;;27.05;23.06
36828;BME280;22766;48.042;11.192;2023-04-22T12:52:38;94387.97;;;27.63;22.50
36828;BME280;22766;48.042;11.192;2023-04-22T12:55:05;94386.00;;;27.94;20.99
36828;BME280;22766;48.042;11.192;2023-04-22T12:57:32;94376.19;;;28.67;23.74
36828;BME280;22766;48.042;11.192;2023-04-22T12:59:59;94384.00;;;29.39;21.41
36828;BME280;22766;48.042;11.192;2023-04-22T13:02:26;94380.16;;;29.74;23.04
36828;BME280;22766;48.042;11.192;2023-04-22T13:04:52;94377.97;;;29.33;21.92
36828;BME280;22766;48.042;11.192;2023-04-22T13:07:19;94376.31;;;29.37;24.22
36828;BME280;22766;48.042;11.192;2023-04-22T13:09:46;94376.22;;;28.23;23.17
36828;BME280;22766;48.042;11.192;2023-04-22T13:12:13;94374.50;;;28.42;22.33
36828;BME280;22766;48.042;11.192;2023-04-22T13:14:40;94375.06;;;29.30;22.37
36828;BME280;22766;48.042;11.192;2023-04-22T13:17:07;94382.00;;;30.15;22.52
36828;BME280;22766;48.042;11.192;2023-04-22T13:19:33;94381.16;;;31.62;21.76
36828;BME280;22766;48.042;11.192;2023-04-22T13:22:01;94381.09;;;32.16;19.34